Time;durP1;ratioP1;P1;durP2;ratioP2;P2;SDS_P1;SDS_P2;PMS_P1;PMS_P2;Temp;Humidity;BMP_temperature;BMP_pressure;BME280_temperature;BME280_humidity;BME280_pressure;Samples;Min_cycle;Max_cycle;Signal;HPM_P1;HPM_P2
2022/08/16 00:00:17;;;;;;;19.92;17.83;;;22.00;99.90;;;;;;5056856;28;20057;-72
2022/08/16 00:02:42;;;;;;;20.63;18.10;;;22.00;99.90;;;;;;5056689;28;20115;-72
2022/08/16 00:05:10;;;;;;;24.75;16.52;;;22.00;99.90;;;;;;5055624;28;20474;-72
2022/08/16 00:07:36;;;;;;;20.63;18.52;;;22.00;99.90;;;;;;5056693;28;20124;-72
2022/08/16 00:10:05;;;;;;;19.83;17.63;;;22.00;99.90;;;;;;5056343;28;20115;-71
2022/08/16 00:12:31;;;;;;;23.40;20.52;;;22.00;99.90;;;;;;5056661;28;20072;-71
2022/08/16 00:14:59;;;;;;;25.48;19.48;;;21.90;99.90;;;;;;5056502;28;20458;-71
2022/08/16 00:17:26;;;;;;;21.45;18.77;;;22.00;99.90;;;;;;5056547;28;20041;-71
2022/08/16 00:19:54;;;;;;;20.67;18.60;;;21.90;99.90;;;;;;5055297;28;20045;-72
2022/08/16 00:22:21;;;;;;;19.23;16.33;;;21.90;99.90;;;;;;5056312;28;20045;-72
2022/08/16 00:24:46;;;;;;;19.83;17.48;;;21.90;99.90;;;;;;5056283;28;20347;-71
2022/08/16 00:27:12;;;;;;;21.08;18.80;;;22.00;99.90;;;;;;5056360;28;20120;-70
2022/08/16 00:29:38;;;;;;;21.95;19.65;;;22.00;99.90;;;;;;5055922;28;20056;-71
2022/08/16 00:32:06;;;;;;;22.35;19.25;;;21.90;99.90;;;;;;5056136;28;20049;-72
2022/08/16 00:34:32;;;;;;;22.23;19.55;;;22.00;99.90;;;;;;5036097;28;20072;-70
2022/08/16 00:36:58;;;;;;;18.73;16.20;;;21.90;99.90;;;;;;5056025;28;20071;-72
2022/08/16 00:39:23;;;;;;;24.13;20.13;;;22.00;99.90;;;;;;5056261;28;20041;-71
2022/08/16 00:41:49;;;;;;;23.30;20.95;;;21.90;99.90;;;;;;5055971;28;20091;-72
2022/08/16 00:44:19;;;;;;;24.23;21.52;;;21.90;99.90;;;;;;5055957;28;20105;-72
2022/08/16 00:46:56;;;;;;;24.83;22.27;;;21.90;99.90;;;;;;5055679;28;20114;-71
2022/08/16 00:49:22;;;;;;;23.67;21.30;;;21.90;99.90;;;;;;5054876;28;20083;-72
2022/08/16 00:51:50;;;;;;;21.77;19.45;;;21.90;99.90;;;;;;5055779;28;20049;-72
2022/08/16 00:54:18;;;;;;;26.48;23.05;;;21.90;99.90;;;;;;5055795;28;20045;-72
2022/08/16 00:56:46;;;;;;;23.08;20.38;;;21.90;99.90;;;;;;5055733;28;20041;-70
2022/08/16 00:59:14;;;;;;;26.45;22.05;;;21.90;99.90;;;;;;5055490;28;20107;-72
2022/08/16 01:01:42;;;;;;;24.38;21.52;;;21.90;99.90;;;;;;5053965;28;20128;-71
2022/08/16 01:04:09;;;;;;;23.92;21.40;;;21.80;99.90;;;;;;5055528;28;20084;-72
2022/08/16 01:06:36;;;;;;;22.70;20.30;;;21.80;99.90;;;;;;5055334;28;20463;-72
2022/08/16 01:09:05;;;;;;;23.15;20.77;;;21.80;99.90;;;;;;5055616;28;20132;-71
2022/08/16 01:11:33;;;;;;;24.77;22.13;;;21.80;99.90;;;;;;5055301;28;20049;-71
2022/08/16 01:14:15;;;;;;;25.38;22.73;;;21.80;99.90;;;;;;5055434;28;20045;-71
2022/08/16 01:16:43;;;;;;;24.42;22.13;;;21.80;99.90;;;;;;5054231;28;20056;-72
2022/08/16 01:19:33;;;;;;;27.65;22.17;;;21.80;99.90;;;;;;5055322;28;20041;-71
2022/08/16 01:22:29;;;;;;;27.75;22.45;;;21.70;99.90;;;;;;5055174;28;20080;-71
2022/08/16 01:25:03;;;;;;;25.05;22.30;;;21.70;99.90;;;;;;5055361;28;20114;-71
2022/08/16 01:27:31;;;;;;;;;;;21.70;99.90;;;;;;5054397;28;20045;-72
2022/08/16 01:30:09;;;;;;;26.67;23.95;;;21.60;99.90;;;;;;5055166;28;19920;-71
2022/08/16 01:32:37;;;;;;;24.92;22.20;;;21.60;99.90;;;;;;5055025;28;20080;-71
2022/08/16 01:35:08;;;;;;;31.45;25.92;;;21.60;99.90;;;;;;5054963;28;20462;-71
2022/08/16 01:37:42;;;;;;;28.40;25.52;;;21.60;99.90;;;;;;5055382;28;20045;-71
2022/08/16 01:40:10;;;;;;;28.55;25.52;;;21.50;99.90;;;;;;5055192;28;20403;-71
2022/08/16 01:42:36;;;;;;;28.83;25.83;;;21.50;99.90;;;;;;5053966;28;20182;-71
2022/08/16 01:45:03;;;;;;;29.55;24.25;;;21.50;99.90;;;;;;5054734;28;20110;-72
2022/08/16 01:47:30;;;;;;;27.23;23.70;;;21.50;99.90;;;;;;5054779;28;20072;-71
2022/08/16 01:49:55;;;;;;;24.45;22.10;;;21.50;99.90;;;;;;5054822;28;20037;-71
2022/08/16 01:52:21;;;;;;;27.30;24.50;;;21.50;99.90;;;;;;5054897;28;20041;-71
2022/08/16 01:54:47;;;;;;;28.98;25.98;;;21.50;99.90;;;;;;5053755;28;20123;-72
2022/08/16 01:57:13;;;;;;;31.45;27.73;;;21.40;99.90;;;;;;5054885;28;20124;-72
2022/08/16 01:59:40;;;;;;;29.83;26.75;;;21.40;99.90;;;;;;5058100;28;20048;-71
2022/08/16 02:02:05;;;;;;;33.15;29.45;;;21.30;99.90;;;;;;5044132;28;20132;-72
2022/08/16 02:04:32;;;;;;;36.20;29.00;;;21.30;99.90;;;;;;5061283;28;20128;-70
2022/08/16 02:06:58;;;;;;;30.75;27.55;;;21.20;99.90;;;;;;5061360;28;20045;-70
2022/08/16 02:09:25;;;;;;;32.53;29.13;;;21.10;99.90;;;;;;5060546;28;20052;-73
2022/08/16 02:11:56;;;;;;;31.73;28.55;;;21.10;99.90;;;;;;5061157;28;20478;-71
2022/08/16 02:14:25;;;;;;;33.80;28.00;;;21.10;99.90;;;;;;5061293;28;20056;-71
2022/08/16 02:16:51;;;;;;;28.90;26.17;;;21.10;99.90;;;;;;5061161;28;20459;-72
2022/08/16 02:19:18;;;;;;;33.75;30.17;;;21.00;99.90;;;;;;5043694;28;20080;-71
2022/08/16 02:21:49;;;;;;;34.58;30.42;;;21.00;99.90;;;;;;5061318;28;20036;-71
2022/08/16 02:24:15;;;;;;;32.92;29.50;;;21.00;99.90;;;;;;5042601;28;20358;-71
2022/08/16 02:26:41;;;;;;;32.55;29.00;;;20.90;99.90;;;;;;5061534;28;20044;-72
2022/08/16 02:29:06;;;;;;;34.35;30.55;;;20.90;99.90;;;;;;5009811;28;20049;-70
2022/08/16 02:31:32;;;;;;;34.10;30.55;;;20.90;99.90;;;;;;5061319;28;20045;-72
2022/08/16 02:33:58;;;;;;;35.70;30.63;;;20.90;99.90;;;;;;5061193;28;20055;-72
2022/08/16 02:36:23;;;;;;;34.88;30.58;;;20.80;99.90;;;;;;5061262;28;20340;-72
2022/08/16 02:38:49;;;;;;;33.38;29.88;;;20.70;99.90;;;;;;5060313;28;20433;-71
2022/08/16 02:41:14;;;;;;;32.55;29.05;;;20.80;99.90;;;;;;5060657;28;20052;-71
2022/08/16 02:43:40;;;;;;;32.45;29.27;;;20.80;99.90;;;;;;5060954;28;20041;-71
2022/08/16 02:46:07;;;;;;;30.40;27.27;;;20.80;99.90;;;;;;5061232;28;20052;-71
2022/08/16 02:48:33;;;;;;;31.52;28.42;;;20.70;99.90;;;;;;5061189;28;20037;-72
2022/08/16 02:51:00;;;;;;;31.45;28.17;;;20.70;99.90;;;;;;5061127;28;20040;-70
2022/08/16 02:53:26;;;;;;;33.75;30.55;;;20.70;99.90;;;;;;5043441;28;20159;-72
2022/08/16 02:55:52;;;;;;;35.15;31.10;;;20.70;99.90;;;;;;5059936;28;20068;-71
2022/08/16 02:58:19;;;;;;;33.90;29.33;;;20.70;99.90;;;;;;5060828;28;20041;-70
2022/08/16 03:00:45;;;;;;;32.30;28.75;;;20.60;99.90;;;;;;5060829;28;20076;-71
2022/08/16 03:03:11;;;;;;;33.65;30.00;;;20.60;99.90;;;;;;5060929;28;20103;-71
2022/08/16 03:05:36;;;;;;;32.35;29.02;;;20.60;99.90;;;;;;5060797;28;20055;-71
2022/08/16 03:08:02;;;;;;;28.15;25.40;;;20.60;99.90;;;;;;5060959;28;20513;-72
2022/08/16 03:10:28;;;;;;;34.80;31.20;;;20.60;99.90;;;;;;5057830;28;20383;-71
2022/08/16 03:12:54;;;;;;;34.92;30.15;;;20.60;99.90;;;;;;5056896;28;20064;-70
2022/08/16 03:15:20;;;;;;;34.30;30.90;;;20.60;99.90;;;;;;5057473;28;20049;-73
2022/08/16 03:17:46;;;;;;;35.70;31.92;;;20.60;99.90;;;;;;5040332;28;20441;-73
2022/08/16 03:20:14;;;;;;;33.78;30.10;;;20.60;99.90;;;;;;5057664;28;20083;-73
2022/08/16 03:22:39;;;;;;;33.22;29.85;;;20.50;99.90;;;;;;5057602;28;20068;-72
2022/08/16 03:25:08;;;;;;;34.80;31.23;;;20.50;99.90;;;;;;5056428;28;20457;-72
2022/08/16 03:27:35;;;;;;;33.58;29.98;;;20.50;99.90;;;;;;5057288;28;20135;-71
2022/08/16 03:30:14;;;;;;;32.33;28.95;;;20.60;99.90;;;;;;5057192;28;20029;-72
2022/08/16 03:32:40;;;;;;;33.22;29.80;;;20.50;99.90;;;;;;5057445;28;20045;-72
2022/08/16 03:35:06;;;;;;;30.38;27.10;;;20.60;99.90;;;;;;5057373;28;20066;-72
2022/08/16 03:37:33;;;;;;;41.80;33.63;;;20.50;99.90;;;;;;5057169;28;20055;-72
2022/08/16 03:39:59;;;;;;;34.90;31.48;;;20.50;99.90;;;;;;5056211;28;20353;-72
2022/08/16 03:42:25;;;;;;;37.72;33.80;;;20.50;99.90;;;;;;5056959;28;20041;-73
2022/08/16 03:44:51;;;;;;;37.67;33.78;;;20.50;99.90;;;;;;5057276;28;20041;-71
2022/08/16 03:47:17;;;;;;;37.17;33.13;;;20.50;99.90;;;;;;5057297;28;20107;-71
2022/08/16 03:49:43;;;;;;;35.58;31.80;;;20.50;99.90;;;;;;5057003;28;20056;-71
2022/08/16 03:52:09;;;;;;;39.50;35.22;;;20.40;99.90;;;;;;5055894;28;20037;-72
2022/08/16 03:54:35;;;;;;;37.45;33.42;;;20.40;99.90;;;;;;5056666;28;20045;-72
2022/08/16 03:57:01;;;;;;;36.63;32.92;;;20.50;99.90;;;;;;5056748;28;20044;-73
2022/08/16 03:59:28;;;;;;;35.95;32.20;;;20.40;99.90;;;;;;5055131;28;20060;-72
2022/08/16 04:01:53;;;;;;;37.10;32.92;;;20.40;99.90;;;;;;5056180;28;20390;-71
2022/08/16 04:04:19;;;;;;;37.58;33.60;;;20.40;99.90;;;;;;5056770;28;20041;-70
2022/08/16 04:06:45;;;;;;;33.67;30.38;;;20.40;99.90;;;;;;5055636;28;20492;-73
2022/08/16 04:09:11;;;;;;;37.22;33.42;;;20.40;99.90;;;;;;5056559;28;20037;-72
2022/08/16 04:11:37;;;;;;;35.60;32.20;;;20.30;99.90;;;;;;5056782;28;20057;-72
2022/08/16 04:14:02;;;;;;;36.25;32.75;;;20.30;99.90;;;;;;5056398;28;20060;-73
2022/08/16 04:16:30;;;;;;;36.45;32.85;;;20.30;99.90;;;;;;5056563;28;20045;-72
2022/08/16 04:18:55;;;;;;;40.08;35.90;;;20.30;99.90;;;;;;5056444;28;20075;-72
2022/08/16 04:21:21;;;;;;;35.03;31.52;;;20.30;99.90;;;;;;5053329;28;20463;-72
2022/08/16 04:23:46;;;;;;;38.00;34.05;;;20.20;99.90;;;;;;5049249;28;20053;-73
2022/08/16 04:26:12;;;;;;;37.28;33.33;;;20.20;99.90;;;;;;5055750;28;20041;-71
2022/08/16 04:28:37;;;;;;;37.72;33.72;;;20.20;99.90;;;;;;5056338;28;20117;-72
2022/08/16 04:31:03;;;;;;;38.28;34.20;;;20.20;99.90;;;;;;5055919;28;20474;-72
2022/08/16 04:33:29;;;;;;;40.03;35.97;;;20.20;99.90;;;;;;5056157;28;20462;-71
2022/08/16 04:35:56;;;;;;;37.10;33.40;;;20.20;99.90;;;;;;5055130;28;20060;-71
2022/08/16 04:38:21;;;;;;;41.83;37.58;;;20.10;99.90;;;;;;5055222;28;20391;-71
2022/08/16 04:40:47;;;;;;;39.20;35.22;;;20.10;99.90;;;;;;5055990;28;20102;-72
2022/08/16 04:43:14;;;;;;;41.03;35.53;;;20.10;99.90;;;;;;5056369;28;20037;-71
2022/08/16 04:45:41;;;;;;;38.00;34.30;;;20.10;99.90;;;;;;5055955;28;20049;-73
2022/08/16 04:48:07;;;;;;;38.42;34.30;;;20.10;99.90;;;;;;5056017;28;20052;-73
2022/08/16 04:50:33;;;;;;;39.40;35.40;;;20.10;99.90;;;;;;5054687;28;20044;-72
2022/08/16 04:52:59;;;;;;;38.47;34.50;;;20.00;99.90;;;;;;5054857;28;20336;-71
2022/08/16 04:55:27;;;;;;;40.95;35.78;;;20.00;99.90;;;;;;5055628;28;20052;-72
2022/08/16 04:57:54;;;;;;;39.95;35.67;;;20.00;99.90;;;;;;5055803;28;20142;-72
2022/08/16 05:00:24;;;;;;;38.75;34.50;;;20.00;99.90;;;;;;5054879;28;20049;-71
2022/08/16 05:02:52;;;;;;;39.58;35.28;;;19.90;99.90;;;;;;5054354;28;20127;-71
2022/08/16 05:05:18;;;;;;;39.05;34.75;;;19.90;99.90;;;;;;5054267;28;20481;-72
2022/08/16 05:07:45;;;;;;;39.67;35.55;;;20.00;99.90;;;;;;5055166;28;20072;-72
2022/08/16 05:10:10;;;;;;;38.63;34.65;;;20.00;99.90;;;;;;5055203;28;20053;-71
2022/08/16 05:12:36;;;;;;;37.97;33.97;;;20.00;99.90;;;;;;5055340;28;20053;-71
2022/08/16 05:15:03;;;;;;;41.30;35.90;;;20.00;99.90;;;;;;5054374;28;20127;-72
2022/08/16 05:17:30;;;;;;;38.67;34.95;;;20.10;99.90;;;;;;5053382;28;20394;-72
2022/08/16 05:19:56;;;;;;;38.55;34.53;;;20.10;99.90;;;;;;5054971;28;20048;-72
2022/08/16 05:22:22;;;;;;;38.42;34.50;;;20.10;99.90;;;;;;5055188;28;20044;-73
2022/08/16 05:24:48;;;;;;;39.60;35.55;;;20.10;99.90;;;;;;5055229;28;20371;-72
2022/08/16 05:27:14;;;;;;;40.22;33.58;;;20.10;99.90;;;;;;5055310;28;20110;-72
2022/08/16 05:29:40;;;;;;;37.13;31.83;;;20.20;99.90;;;;;;5055118;28;20032;-71
2022/08/16 05:32:09;;;;;;;38.42;34.40;;;20.10;99.90;;;;;;5054172;28;20057;-73
2022/08/16 05:34:35;;;;;;;41.17;34.47;;;20.20;99.90;;;;;;5054175;28;20113;-72
2022/08/16 05:37:01;;;;;;;39.78;35.05;;;20.20;99.90;;;;;;5054944;28;20036;-72
2022/08/16 05:39:27;;;;;;;39.38;34.75;;;20.20;99.90;;;;;;5054779;28;20057;-72
2022/08/16 05:41:53;;;;;;;38.40;34.40;;;20.10;99.90;;;;;;5054875;28;20051;-72
2022/08/16 05:44:22;;;;;;;40.85;36.38;;;20.20;99.90;;;;;;5054927;28;20060;-74
2022/08/16 05:46:49;;;;;;;38.92;35.03;;;20.20;99.90;;;;;;5053715;28;20440;-73
2022/08/16 05:49:15;;;;;;;37.70;33.75;;;20.20;99.90;;;;;;5054291;28;20463;-72
2022/08/16 05:51:45;;;;;;;41.60;37.15;;;20.30;99.90;;;;;;5052866;28;20122;-73
2022/08/16 05:54:13;;;;;;;38.95;34.88;;;20.30;99.90;;;;;;5054669;28;20056;-73
2022/08/16 05:56:40;;;;;;;39.15;35.08;;;20.30;99.90;;;;;;5055002;28;20094;-73
2022/08/16 05:59:06;;;;;;;38.65;34.65;;;20.20;99.90;;;;;;5054842;28;20041;-72
2022/08/16 06:01:33;;;;;;;40.67;36.70;;;20.20;99.90;;;;;;5053845;28;20049;-73
2022/08/16 06:03:59;;;;;;;39.72;34.78;;;20.20;99.90;;;;;;5054670;28;20041;-72
2022/08/16 06:06:24;;;;;;;41.22;36.53;;;20.30;99.90;;;;;;5054444;28;20056;-71
2022/08/16 06:08:50;;;;;;;38.70;34.85;;;20.30;99.90;;;;;;5054464;28;20123;-73
2022/08/16 06:11:15;;;;;;;40.22;35.80;;;20.30;99.90;;;;;;5054392;28;20052;-73
2022/08/16 06:13:42;;;;;;;41.67;37.20;;;20.40;99.90;;;;;;5054737;28;20045;-72
2022/08/16 06:16:08;;;;;;;39.42;35.08;;;20.30;99.90;;;;;;5036115;28;20045;-71
2022/08/16 06:18:34;;;;;;;42.50;38.17;;;20.50;99.90;;;;;;5054533;28;20052;-72
2022/08/16 06:20:59;;;;;;;40.17;36.08;;;20.50;99.90;;;;;;5054572;28;20358;-73
2022/08/16 06:23:25;;;;;;;43.30;38.70;;;20.60;99.90;;;;;;5037334;28;20060;-72
2022/08/16 06:25:51;;;;;;;42.22;37.65;;;20.60;99.90;;;;;;5054564;28;20461;-72
2022/08/16 06:28:17;;;;;;;43.25;38.60;;;20.60;99.90;;;;;;5054022;28;20443;-72
2022/08/16 06:30:43;;;;;;;42.22;37.72;;;20.60;99.90;;;;;;5053526;28;20060;-72
2022/08/16 06:33:09;;;;;;;45.72;40.70;;;20.70;99.90;;;;;;5053703;28;20049;-74
2022/08/16 06:35:35;;;;;;;44.13;39.45;;;20.80;99.90;;;;;;5054532;28;20447;-71
2022/08/16 06:38:01;;;;;;;51.97;40.15;;;20.80;99.90;;;;;;5054295;28;20041;-70
2022/08/16 06:40:28;;;;;;;45.22;40.42;;;21.00;99.90;;;;;;5054508;28;20479;-71
2022/08/16 06:42:55;;;;;;;46.78;41.67;;;21.00;99.90;;;;;;5054355;28;20041;-71
2022/08/16 06:45:22;;;;;;;45.20;40.40;;;21.10;99.90;;;;;;5055464;28;20079;-72
2022/08/16 06:47:48;;;;;;;50.70;42.90;;;21.10;99.90;;;;;;5058013;28;20070;-72
2022/08/16 06:50:13;;;;;;;47.85;42.60;;;21.20;99.90;;;;;;5058049;28;20124;-72
2022/08/16 06:52:39;;;;;;;47.47;42.58;;;21.30;99.90;;;;;;5057894;28;20187;-72
2022/08/16 06:55:06;;;;;;;47.80;42.28;;;21.40;99.90;;;;;;5040516;28;20051;-72
2022/08/16 06:57:32;;;;;;;48.70;42.72;;;21.40;99.90;;;;;;5040220;28;20120;-72
2022/08/16 06:59:58;;;;;;;53.30;43.47;;;21.60;99.90;;;;;;5056862;28;20159;-73
2022/08/16 07:02:24;;;;;;;57.35;42.17;;;21.60;99.90;;;;;;5058072;28;20094;-74
2022/08/16 07:04:52;;;;;;;45.00;40.15;;;21.50;99.90;;;;;;5057830;28;20052;-72
2022/08/16 07:07:19;;;;;;;49.38;41.38;;;21.60;99.90;;;;;;5040606;28;20131;-72
2022/08/16 07:09:46;;;;;;;53.90;41.67;;;21.70;99.90;;;;;;5057641;28;20041;-72
2022/08/16 07:12:13;;;;;;;44.97;40.17;;;21.70;99.90;;;;;;5057467;28;20045;-73
2022/08/16 07:14:39;;;;;;;45.72;40.72;;;21.90;99.90;;;;;;5056564;28;20041;-72
2022/08/16 07:17:06;;;;;;;46.67;41.40;;;22.00;99.90;;;;;;5057588;28;20379;-72
2022/08/16 07:19:32;;;;;;;45.25;40.30;;;22.00;99.90;;;;;;5057745;28;20106;-73
2022/08/16 07:22:01;;;;;;;45.72;37.60;;;22.00;99.90;;;;;;5057500;28;20451;-72
2022/08/16 07:24:27;;;;;;;42.85;38.30;;;22.00;99.90;;;;;;5057427;28;20049;-72
2022/08/16 07:26:54;;;;;;;45.03;38.40;;;22.00;99.90;;;;;;5057323;28;20112;-73
2022/08/16 07:29:19;;;;;;;45.72;40.72;;;22.10;99.90;;;;;;5055561;28;20132;-72
2022/08/16 07:31:45;;;;;;;44.85;36.50;;;22.10;99.90;;;;;;5057112;28;20127;-73
2022/08/16 07:34:11;;;;;;;44.72;38.53;;;22.30;99.90;;;;;;5057280;28;20341;-72
2022/08/16 07:36:37;;;;;;;42.67;36.58;;;22.40;99.90;;;;;;5057262;28;20045;-73
2022/08/16 07:39:03;;;;;;;48.58;39.08;;;22.30;99.90;;;;;;5057270;28;20067;-73
2022/08/16 07:41:29;;;;;;;42.90;37.40;;;22.10;99.90;;;;;;5022995;28;20049;-73
2022/08/16 07:43:55;;;;;;;46.22;36.75;;;22.00;99.90;;;;;;5054418;28;20067;-72
2022/08/16 07:46:20;;;;;;;44.17;37.70;;;22.00;99.90;;;;;;5057227;28;20064;-72
2022/08/16 07:48:46;;;;;;;46.83;36.92;;;22.00;99.90;;;;;;5056681;28;20037;-73
2022/08/16 07:51:12;;;;;;;40.78;36.05;;;22.00;99.90;;;;;;5056906;28;20045;-72
2022/08/16 07:53:37;;;;;;;43.75;39.08;;;22.10;99.90;;;;;;5056934;28;20112;-72
2022/08/16 07:56:04;;;;;;;44.17;39.28;;;22.10;99.90;;;;;;5055775;28;20044;-73
2022/08/16 07:58:30;;;;;;;41.38;36.50;;;22.20;99.90;;;;;;5055521;28;20131;-73
2022/08/16 08:00:56;;;;;;;44.38;35.92;;;22.30;99.90;;;;;;5039438;28;20120;-73
2022/08/16 08:03:22;;;;;;;40.03;34.50;;;22.40;99.90;;;;;;5056733;28;20049;-73
2022/08/16 08:05:48;;;;;;;37.67;33.50;;;22.40;99.90;;;;;;5056669;28;20399;-72
2022/08/16 08:08:13;;;;;;;36.90;32.92;;;22.30;99.90;;;;;;5039224;28;20044;-73
2022/08/16 08:10:39;;;;;;;41.00;34.95;;;22.40;99.90;;;;;;5056337;28;20048;-73
2022/08/16 08:13:05;;;;;;;39.75;35.63;;;22.30;99.90;;;;;;5055600;28;20056;-73
2022/08/16 08:15:34;;;;;;;42.25;37.65;;;22.30;99.90;;;;;;5057007;28;20049;-72
2022/08/16 08:18:01;;;;;;;40.67;36.22;;;22.30;99.90;;;;;;5056672;28;20056;-73
2022/08/16 08:20:27;;;;;;;40.65;36.00;;;22.20;99.90;;;;;;5056476;28;20374;-73
2022/08/16 08:22:55;;;;;;;44.95;35.42;;;22.30;99.90;;;;;;5058036;28;20057;-73
2022/08/16 08:25:21;;;;;;;43.35;36.15;;;22.40;99.90;;;;;;5056230;28;20045;-73
2022/08/16 08:27:47;;;;;;;40.50;36.17;;;22.40;99.90;;;;;;5053831;28;20123;-73
2022/08/16 08:30:13;;;;;;;43.58;37.33;;;22.50;99.90;;;;;;5056208;28;20052;-73
2022/08/16 08:32:39;;;;;;;39.55;35.55;;;22.50;99.90;;;;;;5022306;28;20049;-73
2022/08/16 08:35:28;;;;;;;44.20;35.45;;;22.50;99.90;;;;;;5054978;28;20037;-74
2022/08/16 08:37:54;;;;;;;38.90;34.65;;;22.40;99.90;;;;;;5043280;28;20509;-73
2022/08/16 08:40:21;;;;;;;40.58;35.13;;;22.50;99.90;;;;;;5056005;28;20053;-73
2022/08/16 08:42:46;;;;;;;41.15;34.38;;;22.60;99.90;;;;;;5055595;28;20466;-73
2022/08/16 08:45:14;;;;;;;43.22;36.45;;;22.60;99.90;;;;;;5056064;28;20044;-74
2022/08/16 08:47:41;;;;;;;38.40;34.30;;;22.70;99.90;;;;;;5055898;28;20115;-73
2022/08/16 08:50:07;;;;;;;38.63;33.85;;;22.60;99.90;;;;;;5054175;28;20451;-73
2022/08/16 08:52:33;;;;;;;35.33;31.17;;;22.60;99.90;;;;;;5055682;28;20099;-73
2022/08/16 08:55:03;;;;;;;38.92;34.53;;;22.70;99.90;;;;;;5055604;28;20045;-73
2022/08/16 08:57:29;;;;;;;41.25;35.05;;;22.80;99.90;;;;;;5055697;28;20049;-74
2022/08/16 08:59:55;;;;;;;42.22;37.97;;;22.80;99.90;;;;;;5055600;28;20521;-73
2022/08/16 09:02:20;;;;;;;38.88;34.22;;;22.90;99.90;;;;;;5055574;28;20063;-73
2022/08/16 09:04:46;;;;;;;37.60;33.70;;;22.90;99.90;;;;;;5053992;28;20037;-73
2022/08/16 09:07:11;;;;;;;36.22;32.17;;;23.10;99.90;;;;;;5055287;28;20041;-73
2022/08/16 09:09:37;;;;;;;35.50;31.83;;;23.00;99.90;;;;;;5055430;28;20052;-73
2022/08/16 09:12:03;;;;;;;34.53;30.88;;;23.10;99.90;;;;;;5055396;28;20106;-73
2022/08/16 09:14:29;;;;;;;36.25;32.45;;;23.20;99.90;;;;;;5054535;28;20084;-73
2022/08/16 09:16:55;;;;;;;34.42;30.05;;;23.20;99.90;;;;;;5055443;28;20419;-74
2022/08/16 09:19:21;;;;;;;32.33;28.85;;;23.20;99.90;;;;;;5055362;28;20048;-74
2022/08/16 09:21:48;;;;;;;34.75;30.85;;;23.40;99.90;;;;;;5055283;28;20060;-74
2022/08/16 09:24:15;;;;;;;35.45;30.80;;;23.40;99.90;;;;;;5055169;28;20060;-73
2022/08/16 09:26:40;;;;;;;30.15;26.83;;;23.40;99.90;;;;;;5037959;28;20063;-73
2022/08/16 09:29:06;;;;;;;33.80;30.13;;;23.50;99.90;;;;;;5054016;28;20116;-73
2022/08/16 09:31:32;;;;;;;34.53;30.38;;;23.50;99.90;;;;;;5055093;28;20080;-73
2022/08/16 09:34:00;;;;;;;37.03;30.90;;;23.60;99.90;;;;;;5055288;28;20451;-74
2022/08/16 09:36:26;;;;;;;32.58;28.92;;;23.60;99.90;;;;;;5055032;28;20377;-73
2022/08/16 09:38:52;;;;;;;35.00;30.90;;;23.60;99.90;;;;;;5054078;28;20083;-73
2022/08/16 09:41:18;;;;;;;38.63;30.95;;;23.80;99.90;;;;;;5037687;28;20093;-73
2022/08/16 09:43:44;;;;;;;34.58;28.40;;;23.80;99.90;;;;;;5037609;28;20106;-73
2022/08/16 09:46:10;;;;;;;34.42;30.67;;;23.90;99.90;;;;;;5055008;28;20048;-73
2022/08/16 09:48:38;;;;;;;38.28;32.58;;;23.80;99.90;;;;;;5037299;28;20406;-73
2022/08/16 09:51:04;;;;;;;37.30;31.77;;;24.00;99.90;;;;;;5054863;28;20059;-73
2022/08/16 09:53:31;;;;;;;34.38;30.10;;;24.00;99.90;;;;;;5036280;28;20048;-73
2022/08/16 09:55:57;;;;;;;36.80;32.28;;;24.00;99.90;;;;;;5037281;28;20041;-73
2022/08/16 09:58:25;;;;;;;34.63;31.17;;;24.10;99.90;;;;;;5054398;28;20044;-74
2022/08/16 10:00:53;;;;;;;34.00;30.50;;;24.10;99.90;;;;;;5037485;28;20045;-74
2022/08/16 10:03:19;;;;;;;31.52;28.15;;;24.10;99.90;;;;;;5054776;28;20458;-74
2022/08/16 10:05:45;;;;;;;33.85;30.15;;;24.20;99.90;;;;;;5054817;28;20045;-74
2022/08/16 10:08:12;;;;;;;33.53;28.08;;;24.20;99.90;;;;;;5053802;28;20041;-72
2022/08/16 10:13:10;;;;;;;32.72;29.23;;;24.20;99.90;;;;;;5053672;28;20509;-72
2022/08/16 10:13:27;;;;;;;34.42;30.75;;;24.30;99.90;;;;;;5036632;28;20048;-72
2022/08/16 10:15:58;;;;;;;32.38;28.90;;;24.30;99.90;;;;;;5054605;28;20052;-72
2022/08/16 10:18:28;;;;;;;30.30;26.13;;;24.30;99.90;;;;;;5054507;28;20052;-71
2022/08/16 10:20:54;;;;;;;31.52;26.67;;;24.40;99.90;;;;;;5057591;28;20041;-71
2022/08/16 10:23:21;;;;;;;31.98;25.85;;;24.50;99.90;;;;;;5040134;28;20550;-71
2022/08/16 10:25:47;;;;;;;32.38;26.95;;;24.50;99.90;;;;;;5057670;28;20065;-71
2022/08/16 10:28:15;;;;;;;26.48;22.60;;;24.60;99.90;;;;;;5058810;28;20183;-71
2022/08/16 10:30:42;;;;;;;28.38;25.25;;;24.60;99.90;;;;;;5058344;28;20051;-71
2022/08/16 10:33:12;;;;;;;28.45;25.48;;;24.80;99.90;;;;;;5058329;28;20045;-71
2022/08/16 10:35:39;;;;;;;27.05;20.88;;;24.90;99.90;;;;;;5058356;28;20073;-72
2022/08/16 10:38:05;;;;;;;25.35;22.70;;;25.00;99.90;;;;;;5057699;28;20045;-71
2022/08/16 10:40:31;;;;;;;25.25;22.27;;;25.00;99.90;;;;;;5058361;28;20451;-72
2022/08/16 10:43:01;;;;;;;22.23;19.02;;;24.90;99.90;;;;;;5058198;28;20128;-72
2022/08/16 10:45:28;;;;;;;24.33;20.75;;;25.00;99.90;;;;;;5040591;28;20086;-71
2022/08/16 10:47:56;;;;;;;26.35;23.15;;;25.10;99.90;;;;;;5058154;28;20076;-72
2022/08/16 10:50:21;;;;;;;22.60;20.13;;;25.10;99.90;;;;;;5039061;28;20123;-74
2022/08/16 10:52:47;;;;;;;22.90;20.42;;;25.00;99.90;;;;;;5040940;28;20124;-75
2022/08/16 10:55:16;;;;;;;23.75;20.50;;;25.00;99.90;;;;;;5040912;28;20524;-73
2022/08/16 10:57:44;;;;;;;27.30;20.92;;;25.10;99.90;;;;;;5075572;28;20041;-74
2022/08/16 11:00:15;;;;;;;31.00;23.38;;;25.30;99.90;;;;;;5060187;28;20045;-74
2022/08/16 11:02:47;;;;;;;26.25;23.42;;;25.30;99.90;;;;;;5030910;28;20033;-75
2022/08/16 11:05:17;;;;;;;24.45;21.20;;;25.20;99.90;;;;;;5049287;28;20071;-74
2022/08/16 11:07:46;;;;;;;31.95;26.55;;;25.30;99.90;;;;;;5039092;28;20156;-74
2022/08/16 11:10:16;;;;;;;27.08;23.63;;;25.30;99.90;;;;;;5062966;28;20056;-75
2022/08/16 11:12:41;;;;;;;26.40;20.65;;;25.00;99.90;;;;;;5054481;28;20059;-73
2022/08/16 11:15:07;;;;;;;21.48;18.25;;;25.10;99.90;;;;;;5057825;28;20045;-75
2022/08/16 11:17:33;;;;;;;20.00;15.82;;;25.30;99.90;;;;;;5039988;28;20479;-75
2022/08/16 11:20:00;;;;;;;24.65;20.13;;;25.40;99.90;;;;;;5057815;28;20088;-75
2022/08/16 11:22:25;;;;;;;20.70;16.98;;;25.40;99.90;;;;;;5056922;28;20056;-75
2022/08/16 11:24:51;;;;;;;21.25;17.10;;;25.40;99.90;;;;;;5060609;28;20394;-74
2022/08/16 11:27:19;;;;;;;20.85;18.45;;;25.30;99.90;;;;;;5059944;28;20040;-71
2022/08/16 11:29:45;;;;;;;24.83;18.02;;;25.40;99.90;;;;;;5077162;28;20044;-73
2022/08/16 11:46:48;;;;;;;17.08;15.27;;;25.60;99.90;;;;;;5686443;22;20061;-73
2022/08/16 11:49:17;;;;;;;16.23;14.55;;;25.80;99.90;;;;;;5019310;28;20041;-72
2022/08/16 11:51:44;;;;;;;16.33;14.60;;;25.80;99.90;;;;;;5036352;28;20052;-73
2022/08/16 11:54:13;;;;;;;18.00;15.00;;;26.00;99.90;;;;;;5035650;28;20057;-71
2022/08/16 11:56:39;;;;;;;17.35;15.55;;;25.90;99.90;;;;;;5036889;28;20373;-72
2022/08/16 11:59:05;;;;;;;18.63;16.42;;;26.10;99.90;;;;;;5037174;28;20037;-72
2022/08/16 12:01:31;;;;;;;15.75;14.13;;;26.00;99.90;;;;;;5037058;28;20410;-72
2022/08/16 12:03:56;;;;;;;20.75;14.40;;;26.00;99.90;;;;;;5035683;28;20142;-73
2022/08/16 12:06:22;;;;;;;13.63;12.20;;;26.20;99.90;;;;;;5019266;28;20475;-72
2022/08/16 12:08:48;;;;;;;15.98;14.27;;;25.90;99.90;;;;;;5036362;28;20191;-73
2022/08/16 12:11:15;;;;;;;16.48;13.00;;;26.00;99.90;;;;;;5036607;28;20041;-72
2022/08/16 12:13:41;;;;;;;16.05;12.75;;;26.00;99.90;;;;;;5035745;28;20047;-72
2022/08/16 12:16:08;;;;;;;14.52;12.80;;;26.00;99.90;;;;;;5036984;28;20132;-73
2022/08/16 12:18:34;;;;;;;12.43;11.20;;;26.00;99.90;;;;;;5036591;28;20056;-72
2022/08/16 12:21:00;;;;;;;9.23;8.38;;;26.20;99.90;;;;;;5036385;28;20055;-71
2022/08/16 12:23:26;;;;;;;14.27;9.30;;;25.90;98.70;;;;;;5035403;28;20053;-73
2022/08/16 12:25:51;;;;;;;11.80;9.93;;;26.00;98.60;;;;;;5036197;28;20053;-74
2022/08/16 12:50:39;;;;;;;;;;;26.10;99.90;;;;;;4875684;29;20422;-76
2022/08/16 12:53:04;;;;;;;14.07;12.68;;;26.10;99.70;;;;;;4965741;28;19924;-76
2022/08/16 12:55:33;;;;;;;14.52;12.15;;;25.90;99.20;;;;;;4982190;28;20088;-78
2022/08/16 12:58:01;;;;;;;13.52;11.95;;;26.00;99.90;;;;;;4998953;28;20046;-77
2022/08/16 13:00:29;;;;;;;15.77;14.13;;;26.10;99.90;;;;;;5016145;28;20339;-77
2022/08/16 13:03:00;;;;;;;16.10;14.70;;;26.00;99.90;;;;;;4982585;28;20045;-77